sensor_id;sensor_type;location;lat;lon;timestamp;P1;durP1;ratioP1;P2;durP2;ratioP2
46835;SDS011;32573;51.290;6.926;2022-12-20T00:02:08;4.30;;;1.88;;
46835;SDS011;32573;51.290;6.926;2022-12-20T00:04:37;4.85;;;2.10;;
46835;SDS011;32573;51.290;6.926;2022-12-20T00:07:07;4.07;;;1.88;;
46835;SDS011;32573;51.290;6.926;2022-12-20T00:09:36;3.88;;;1.90;;
46835;SDS011;32573;51.290;6.926;2022-12-20T00:12:05;3.45;;;1.80;;
46835;SDS011;32573;51.290;6.926;2022-12-20T00:14:36;4.32;;;1.90;;
46835;SDS011;32573;51.290;6.926;2022-12-20T00:17:05;4.70;;;1.98;;
46835;SDS011;32573;51.290;6.926;2022-12-20T00:19:35;5.90;;;1.92;;
46835;SDS011;32573;51.290;6.926;2022-12-20T00:22:04;3.58;;;1.80;;
46835;SDS011;32573;51.290;6.926;2022-12-20T00:24:33;5.18;;;1.80;;
46835;SDS011;32573;51.290;6.926;2022-12-20T00:27:04;4.55;;;1.73;;
46835;SDS011;32573;51.290;6.926;2022-12-20T00:29:33;3.55;;;1.70;;
46835;SDS011;32573;51.290;6.926;2022-12-20T00:32:04;3.70;;;1.80;;
46835;SDS011;32573;51.290;6.926;2022-12-20T00:34:33;4.00;;;1.73;;
46835;SDS011;32573;51.290;6.926;2022-12-20T00:37:03;4.43;;;2.10;;
46835;SDS011;32573;51.290;6.926;2022-12-20T00:39:32;3.70;;;1.73;;
46835;SDS011;32573;51.290;6.926;2022-12-20T00:42:02;3.83;;;1.90;;
46835;SDS011;32573;51.290;6.926;2022-12-20T00:44:32;4.78;;;1.85;;
46835;SDS011;32573;51.290;6.926;2022-12-20T00:47:00;5.18;;;2.10;;
46835;SDS011;32573;51.290;6.926;2022-12-20T00:49:33;3.70;;;1.65;;
46835;SDS011;32573;51.290;6.926;2022-12-20T00:52:03;4.90;;;1.90;;
46835;SDS011;32573;51.290;6.926;2022-12-20T00:54:33;4.07;;;1.60;;
46835;SDS011;32573;51.290;6.926;2022-12-20T00:57:03;4.70;;;1.60;;
46835;SDS011;32573;51.290;6.926;2022-12-20T00:59:31;3.40;;;1.65;;
46835;SDS011;32573;51.290;6.926;2022-12-20T01:02:00;3.78;;;1.50;;
46835;SDS011;32573;51.290;6.926;2022-12-20T01:04:36;4.57;;;1.90;;
46835;SDS011;32573;51.290;6.926;2022-12-20T01:07:05;3.70;;;1.70;;
46835;SDS011;32573;51.290;6.926;2022-12-20T01:09:33;4.55;;;1.70;;
46835;SDS011;32573;51.290;6.926;2022-12-20T01:12:03;3.75;;;1.63;;
46835;SDS011;32573;51.290;6.926;2022-12-20T01:14:33;3.25;;;1.65;;
46835;SDS011;32573;51.290;6.926;2022-12-20T01:17:02;4.10;;;2.00;;
46835;SDS011;32573;51.290;6.926;2022-12-20T01:19:32;4.03;;;1.80;;
46835;SDS011;32573;51.290;6.926;2022-12-20T01:22:02;3.65;;;1.60;;
46835;SDS011;32573;51.290;6.926;2022-12-20T01:24:33;4.85;;;1.95;;
46835;SDS011;32573;51.290;6.926;2022-12-20T01:27:05;3.50;;;1.60;;
46835;SDS011;32573;51.290;6.926;2022-12-20T01:29:36;3.60;;;1.83;;
46835;SDS011;32573;51.290;6.926;2022-12-20T01:32:26;3.95;;;1.63;;
46835;SDS011;32573;51.290;6.926;2022-12-20T01:34:54;3.90;;;1.75;;
46835;SDS011;32573;51.290;6.926;2022-12-20T01:37:25;3.53;;;1.80;;
46835;SDS011;32573;51.290;6.926;2022-12-20T01:39:54;5.10;;;1.80;;
46835;SDS011;32573;51.290;6.926;2022-12-20T01:42:24;3.90;;;2.03;;
46835;SDS011;32573;51.290;6.926;2022-12-20T01:44:55;3.22;;;1.60;;
46835;SDS011;32573;51.290;6.926;2022-12-20T01:47:27;4.93;;;1.80;;
46835;SDS011;32573;51.290;6.926;2022-12-20T01:50:01;3.55;;;1.80;;
46835;SDS011;32573;51.290;6.926;2022-12-20T01:52:34;3.75;;;1.80;;
46835;SDS011;32573;51.290;6.926;2022-12-20T01:55:08;3.85;;;1.60;;
46835;SDS011;32573;51.290;6.926;2022-12-20T01:57:43;3.20;;;1.60;;
46835;SDS011;32573;51.290;6.926;2022-12-20T02:00:18;4.65;;;1.95;;
46835;SDS011;32573;51.290;6.926;2022-12-20T02:02:48;5.95;;;1.90;;
46835;SDS011;32573;51.290;6.926;2022-12-20T02:05:18;3.88;;;1.80;;
46835;SDS011;32573;51.290;6.926;2022-12-20T02:07:50;4.28;;;1.95;;
46835;SDS011;32573;51.290;6.926;2022-12-20T02:10:23;3.53;;;1.70;;
46835;SDS011;32573;51.290;6.926;2022-12-20T02:13:04;3.80;;;1.70;;
46835;SDS011;32573;51.290;6.926;2022-12-20T02:15:41;4.05;;;1.77;;
46835;SDS011;32573;51.290;6.926;2022-12-20T02:18:19;3.95;;;1.77;;
46835;SDS011;32573;51.290;6.926;2022-12-20T02:21:04;3.47;;;1.77;;
46835;SDS011;32573;51.290;6.926;2022-12-20T02:23:52;3.40;;;1.80;;
46835;SDS011;32573;51.290;6.926;2022-12-20T02:26:50;4.10;;;1.75;;
46835;SDS011;32573;51.290;6.926;2022-12-20T02:30:02;4.90;;;1.92;;
46835;SDS011;32573;51.290;6.926;2022-12-20T02:32:35;4.75;;;2.17;;
46835;SDS011;32573;51.290;6.926;2022-12-20T02:35:09;4.32;;;2.00;;
46835;SDS011;32573;51.290;6.926;2022-12-20T02:37:48;3.92;;;1.70;;
46835;SDS011;32573;51.290;6.926;2022-12-20T02:40:21;4.35;;;1.90;;
46835;SDS011;32573;51.290;6.926;2022-12-20T02:42:53;4.97;;;2.30;;
46835;SDS011;32573;51.290;6.926;2022-12-20T02:45:28;3.67;;;1.90;;
46835;SDS011;32573;51.290;6.926;2022-12-20T02:50:34;4.88;;;2.03;;
46835;SDS011;32573;51.290;6.926;2022-12-20T02:53:13;5.90;;;1.98;;
46835;SDS011;32573;51.290;6.926;2022-12-20T02:55:45;5.18;;;2.10;;
46835;SDS011;32573;51.290;6.926;2022-12-20T02:58:21;6.18;;;2.00;;
46835;SDS011;32573;51.290;6.926;2022-12-20T03:00:56;3.75;;;1.80;;
46835;SDS011;32573;51.290;6.926;2022-12-20T03:03:31;3.80;;;2.03;;
46835;SDS011;32573;51.290;6.926;2022-12-20T03:06:03;4.60;;;2.03;;
46835;SDS011;32573;51.290;6.926;2022-12-20T03:08:34;3.92;;;1.92;;
46835;SDS011;32573;51.290;6.926;2022-12-20T03:11:04;3.80;;;1.80;;
46835;SDS011;32573;51.290;6.926;2022-12-20T03:13:34;3.85;;;2.00;;
46835;SDS011;32573;51.290;6.926;2022-12-20T03:16:09;4.55;;;2.10;;
46835;SDS011;32573;51.290;6.926;2022-12-20T03:18:38;4.03;;;2.05;;
46835;SDS011;32573;51.290;6.926;2022-12-20T03:21:08;4.63;;;2.17;;
46835;SDS011;32573;51.290;6.926;2022-12-20T03:23:37;4.40;;;2.10;;
46835;SDS011;32573;51.290;6.926;2022-12-20T03:26:08;5.15;;;2.15;;
46835;SDS011;32573;51.290;6.926;2022-12-20T03:28:44;4.07;;;2.08;;
46835;SDS011;32573;51.290;6.926;2022-12-20T03:31:20;3.75;;;1.92;;
46835;SDS011;32573;51.290;6.926;2022-12-20T03:33:53;5.13;;;2.10;;
46835;SDS011;32573;51.290;6.926;2022-12-20T03:36:23;5.25;;;2.20;;
46835;SDS011;32573;51.290;6.926;2022-12-20T03:38:59;3.60;;;2.08;;
46835;SDS011;32573;51.290;6.926;2022-12-20T03:41:33;4.75;;;2.35;;
46835;SDS011;32573;51.290;6.926;2022-12-20T03:44:05;4.25;;;2.25;;
46835;SDS011;32573;51.290;6.926;2022-12-20T03:46:47;5.05;;;2.20;;
46835;SDS011;32573;51.290;6.926;2022-12-20T03:49:23;5.28;;;2.42;;
46835;SDS011;32573;51.290;6.926;2022-12-20T03:51:54;4.78;;;2.28;;
46835;SDS011;32573;51.290;6.926;2022-12-20T03:54:24;4.47;;;2.40;;
46835;SDS011;32573;51.290;6.926;2022-12-20T03:57:07;4.85;;;2.20;;
46835;SDS011;32573;51.290;6.926;2022-12-20T03:59:38;4.97;;;2.30;;
46835;SDS011;32573;51.290;6.926;2022-12-20T04:02:15;4.63;;;2.15;;
46835;SDS011;32573;51.290;6.926;2022-12-20T04:04:48;4.30;;;2.15;;
46835;SDS011;32573;51.290;6.926;2022-12-20T04:07:19;4.22;;;2.05;;
46835;SDS011;32573;51.290;6.926;2022-12-20T04:09:50;4.50;;;2.22;;
46835;SDS011;32573;51.290;6.926;2022-12-20T04:12:20;5.13;;;2.17;;
46835;SDS011;32573;51.290;6.926;2022-12-20T04:14:49;4.45;;;2.05;;
46835;SDS011;32573;51.290;6.926;2022-12-20T04:17:20;4.35;;;2.40;;
46835;SDS011;32573;51.290;6.926;2022-12-20T04:19:49;4.18;;;2.15;;
46835;SDS011;32573;51.290;6.926;2022-12-20T04:22:21;3.92;;;1.95;;
46835;SDS011;32573;51.290;6.926;2022-12-20T04:24:59;4.35;;;2.28;;
46835;SDS011;32573;51.290;6.926;2022-12-20T04:27:37;4.63;;;2.30;;
46835;SDS011;32573;51.290;6.926;2022-12-20T04:30:08;5.38;;;2.30;;
46835;SDS011;32573;51.290;6.926;2022-12-20T04:32:40;4.18;;;2.30;;
46835;SDS011;32573;51.290;6.926;2022-12-20T04:35:10;5.30;;;2.35;;
46835;SDS011;32573;51.290;6.926;2022-12-20T04:37:45;4.30;;;2.28;;
46835;SDS011;32573;51.290;6.926;2022-12-20T04:40:17;4.80;;;2.20;;
46835;SDS011;32573;51.290;6.926;2022-12-20T04:42:53;4.70;;;2.30;;
46835;SDS011;32573;51.290;6.926;2022-12-20T04:45:24;4.22;;;2.38;;
46835;SDS011;32573;51.290;6.926;2022-12-20T04:47:58;5.32;;;2.40;;
46835;SDS011;32573;51.290;6.926;2022-12-20T04:50:47;4.60;;;2.30;;
46835;SDS011;32573;51.290;6.926;2022-12-20T04:53:19;4.15;;;2.17;;
46835;SDS011;32573;51.290;6.926;2022-12-20T04:56:09;4.97;;;2.28;;
46835;SDS011;32573;51.290;6.926;2022-12-20T04:58:37;5.57;;;2.20;;
46835;SDS011;32573;51.290;6.926;2022-12-20T05:01:08;4.28;;;2.35;;
46835;SDS011;32573;51.290;6.926;2022-12-20T05:03:48;5.10;;;2.30;;
46835;SDS011;32573;51.290;6.926;2022-12-20T05:06:19;5.97;;;2.10;;
46835;SDS011;32573;51.290;6.926;2022-12-20T05:08:51;4.80;;;2.60;;
46835;SDS011;32573;51.290;6.926;2022-12-20T05:14:52;4.95;;;2.40;;
46835;SDS011;32573;51.290;6.926;2022-12-20T05:17:22;4.18;;;2.15;;
46835;SDS011;32573;51.290;6.926;2022-12-20T05:19:53;5.38;;;2.65;;
46835;SDS011;32573;51.290;6.926;2022-12-20T05:22:26;4.90;;;2.42;;
46835;SDS011;32573;51.290;6.926;2022-12-20T05:25:13;4.45;;;2.30;;
46835;SDS011;32573;51.290;6.926;2022-12-20T05:28:04;6.22;;;2.30;;
46835;SDS011;32573;51.290;6.926;2022-12-20T05:30:41;4.60;;;2.47;;
46835;SDS011;32573;51.290;6.926;2022-12-20T05:33:22;4.38;;;2.42;;
46835;SDS011;32573;51.290;6.926;2022-12-20T05:36:05;5.18;;;2.30;;
46835;SDS011;32573;51.290;6.926;2022-12-20T05:38:38;5.25;;;2.72;;
46835;SDS011;32573;51.290;6.926;2022-12-20T05:41:27;5.13;;;2.72;;
46835;SDS011;32573;51.290;6.926;2022-12-20T05:44:56;5.05;;;2.50;;
46835;SDS011;32573;51.290;6.926;2022-12-20T05:47:25;5.22;;;2.53;;
46835;SDS011;32573;51.290;6.926;2022-12-20T05:50:11;4.13;;;2.08;;
46835;SDS011;32573;51.290;6.926;2022-12-20T05:53:48;5.32;;;2.80;;
46835;SDS011;32573;51.290;6.926;2022-12-20T05:56:23;4.95;;;2.50;;
46835;SDS011;32573;51.290;6.926;2022-12-20T05:58:53;4.90;;;2.45;;
46835;SDS011;32573;51.290;6.926;2022-12-20T06:01:26;5.13;;;2.55;;
46835;SDS011;32573;51.290;6.926;2022-12-20T06:04:01;4.95;;;2.33;;
46835;SDS011;32573;51.290;6.926;2022-12-20T06:10:47;4.20;;;2.28;;
46835;SDS011;32573;51.290;6.926;2022-12-20T06:13:17;5.22;;;2.40;;
46835;SDS011;32573;51.290;6.926;2022-12-20T06:15:50;5.32;;;2.60;;
46835;SDS011;32573;51.290;6.926;2022-12-20T06:18:20;4.45;;;2.63;;
46835;SDS011;32573;51.290;6.926;2022-12-20T06:20:55;5.25;;;2.80;;
46835;SDS011;32573;51.290;6.926;2022-12-20T06:23:32;4.65;;;2.47;;
46835;SDS011;32573;51.290;6.926;2022-12-20T06:26:12;4.90;;;2.40;;
46835;SDS011;32573;51.290;6.926;2022-12-20T06:28:49;5.43;;;2.40;;
46835;SDS011;32573;51.290;6.926;2022-12-20T06:31:39;4.55;;;2.22;;
46835;SDS011;32573;51.290;6.926;2022-12-20T06:34:09;5.78;;;2.47;;
46835;SDS011;32573;51.290;6.926;2022-12-20T06:36:52;5.35;;;2.53;;
46835;SDS011;32573;51.290;6.926;2022-12-20T06:39:37;4.93;;;2.50;;
46835;SDS011;32573;51.290;6.926;2022-12-20T06:42:17;5.50;;;2.65;;
46835;SDS011;32573;51.290;6.926;2022-12-20T06:44:50;5.55;;;2.30;;
46835;SDS011;32573;51.290;6.926;2022-12-20T06:47:25;4.30;;;2.17;;
46835;SDS011;32573;51.290;6.926;2022-12-20T06:50:00;5.07;;;2.45;;
46835;SDS011;32573;51.290;6.926;2022-12-20T06:52:32;4.20;;;2.47;;
46835;SDS011;32573;51.290;6.926;2022-12-20T06:55:03;4.65;;;2.40;;
46835;SDS011;32573;51.290;6.926;2022-12-20T06:57:40;4.57;;;2.33;;
46835;SDS011;32573;51.290;6.926;2022-12-20T07:00:10;4.97;;;2.38;;
46835;SDS011;32573;51.290;6.926;2022-12-20T07:02:41;4.28;;;2.25;;
46835;SDS011;32573;51.290;6.926;2022-12-20T07:05:11;5.22;;;2.70;;
46835;SDS011;32573;51.290;6.926;2022-12-20T07:07:41;4.90;;;2.60;;
46835;SDS011;32573;51.290;6.926;2022-12-20T07:10:11;6.30;;;2.55;;
46835;SDS011;32573;51.290;6.926;2022-12-20T07:12:42;5.05;;;2.58;;
46835;SDS011;32573;51.290;6.926;2022-12-20T07:15:15;4.40;;;2.10;;
46835;SDS011;32573;51.290;6.926;2022-12-20T07:17:45;4.57;;;2.28;;
46835;SDS011;32573;51.290;6.926;2022-12-20T07:20:21;4.53;;;2.38;;
46835;SDS011;32573;51.290;6.926;2022-12-20T07:22:54;4.70;;;2.38;;
46835;SDS011;32573;51.290;6.926;2022-12-20T07:25:23;5.22;;;2.42;;
46835;SDS011;32573;51.290;6.926;2022-12-20T07:27:55;5.40;;;2.40;;
46835;SDS011;32573;51.290;6.926;2022-12-20T07:30:25;5.45;;;2.60;;
46835;SDS011;32573;51.290;6.926;2022-12-20T07:32:58;5.45;;;2.30;;
46835;SDS011;32573;51.290;6.926;2022-12-20T07:35:31;4.10;;;2.10;;
46835;SDS011;32573;51.290;6.926;2022-12-20T07:38:05;4.90;;;2.38;;
46835;SDS011;32573;51.290;6.926;2022-12-20T07:40:38;4.07;;;2.30;;
46835;SDS011;32573;51.290;6.926;2022-12-20T07:43:13;4.80;;;2.53;;
46835;SDS011;32573;51.290;6.926;2022-12-20T07:45:46;4.15;;;2.25;;
46835;SDS011;32573;51.290;6.926;2022-12-20T07:48:19;5.43;;;2.40;;
46835;SDS011;32573;51.290;6.926;2022-12-20T07:50:55;4.30;;;2.30;;
46835;SDS011;32573;51.290;6.926;2022-12-20T07:53:30;4.70;;;2.40;;
46835;SDS011;32573;51.290;6.926;2022-12-20T07:56:04;4.70;;;2.33;;
46835;SDS011;32573;51.290;6.926;2022-12-20T07:58:38;4.53;;;2.28;;
46835;SDS011;32573;51.290;6.926;2022-12-20T08:01:10;4.68;;;2.20;;
46835;SDS011;32573;51.290;6.926;2022-12-20T08:03:45;5.45;;;2.03;;
46835;SDS011;32573;51.290;6.926;2022-12-20T08:06:21;4.70;;;2.15;;
46835;SDS011;32573;51.290;6.926;2022-12-20T08:08:55;4.25;;;2.60;;
46835;SDS011;32573;51.290;6.926;2022-12-20T08:11:29;4.40;;;2.28;;
46835;SDS011;32573;51.290;6.926;2022-12-20T08:14:01;4.05;;;2.40;;
46835;SDS011;32573;51.290;6.926;2022-12-20T08:16:37;4.45;;;2.45;;
46835;SDS011;32573;51.290;6.926;2022-12-20T08:19:06;4.43;;;2.28;;
46835;SDS011;32573;51.290;6.926;2022-12-20T08:21:36;4.13;;;2.40;;
46835;SDS011;32573;51.290;6.926;2022-12-20T08:24:06;4.72;;;2.13;;
46835;SDS011;32573;51.290;6.926;2022-12-20T08:26:37;3.75;;;2.00;;
46835;SDS011;32573;51.290;6.926;2022-12-20T08:29:08;4.93;;;2.45;;
46835;SDS011;32573;51.290;6.926;2022-12-20T08:31:41;4.15;;;2.15;;
46835;SDS011;32573;51.290;6.926;2022-12-20T08:34:17;4.60;;;2.17;;
46835;SDS011;32573;51.290;6.926;2022-12-20T08:37:02;3.90;;;2.00;;
46835;SDS011;32573;51.290;6.926;2022-12-20T08:39:40;4.95;;;2.42;;
46835;SDS011;32573;51.290;6.926;2022-12-20T08:42:10;4.55;;;2.03;;
46835;SDS011;32573;51.290;6.926;2022-12-20T08:44:47;4.30;;;2.00;;
46835;SDS011;32573;51.290;6.926;2022-12-20T08:47:18;5.10;;;2.03;;
46835;SDS011;32573;51.290;6.926;2022-12-20T08:49:48;5.03;;;2.75;;
46835;SDS011;32573;51.290;6.926;2022-12-20T08:52:18;3.90;;;1.92;;
46835;SDS011;32573;51.290;6.926;2022-12-20T08:54:48;4.68;;;2.05;;
46835;SDS011;32573;51.290;6.926;2022-12-20T08:57:20;6.32;;;2.38;;
46835;SDS011;32573;51.290;6.926;2022-12-20T08:59:50;5.25;;;2.22;;
46835;SDS011;32573;51.290;6.926;2022-12-20T09:02:20;3.55;;;1.90;;
46835;SDS011;32573;51.290;6.926;2022-12-20T09:04:53;4.38;;;2.00;;
46835;SDS011;32573;51.290;6.926;2022-12-20T09:07:23;4.38;;;2.08;;
46835;SDS011;32573;51.290;6.926;2022-12-20T09:09:54;4.97;;;1.70;;
46835;SDS011;32573;51.290;6.926;2022-12-20T09:12:24;5.65;;;2.08;;
46835;SDS011;32573;51.290;6.926;2022-12-20T09:14:55;4.00;;;2.00;;
46835;SDS011;32573;51.290;6.926;2022-12-20T09:17:32;4.55;;;2.03;;
46835;SDS011;32573;51.290;6.926;2022-12-20T09:20:03;4.00;;;1.92;;
46835;SDS011;32573;51.290;6.926;2022-12-20T09:22:36;4.03;;;1.98;;
46835;SDS011;32573;51.290;6.926;2022-12-20T09:25:06;4.30;;;1.90;;
46835;SDS011;32573;51.290;6.926;2022-12-20T09:27:37;4.40;;;1.90;;
46835;SDS011;32573;51.290;6.926;2022-12-20T09:30:11;3.35;;;1.80;;
46835;SDS011;32573;51.290;6.926;2022-12-20T09:32:41;3.75;;;1.95;;
46835;SDS011;32573;51.290;6.926;2022-12-20T09:35:11;4.35;;;1.85;;
46835;SDS011;32573;51.290;6.926;2022-12-20T09:37:52;4.50;;;2.10;;
46835;SDS011;32573;51.290;6.926;2022-12-20T09:40:23;3.65;;;1.90;;
46835;SDS011;32573;51.290;6.926;2022-12-20T09:42:59;3.95;;;1.80;;
46835;SDS011;32573;51.290;6.926;2022-12-20T09:45:32;4.22;;;1.90;;
46835;SDS011;32573;51.290;6.926;2022-12-20T09:48:07;5.10;;;2.42;;
46835;SDS011;32573;51.290;6.926;2022-12-20T09:50:47;5.35;;;2.17;;
46835;SDS011;32573;51.290;6.926;2022-12-20T09:53:31;4.28;;;1.95;;
46835;SDS011;32573;51.290;6.926;2022-12-20T09:56:13;3.95;;;1.92;;
46835;SDS011;32573;51.290;6.926;2022-12-20T09:58:55;4.82;;;2.13;;
46835;SDS011;32573;51.290;6.926;2022-12-20T10:01:32;4.30;;;2.17;;
46835;SDS011;32573;51.290;6.926;2022-12-20T10:04:06;4.03;;;1.90;;
46835;SDS011;32573;51.290;6.926;2022-12-20T10:06:50;4.80;;;2.15;;
46835;SDS011;32573;51.290;6.926;2022-12-20T10:12:31;5.88;;;2.40;;
46835;SDS011;32573;51.290;6.926;2022-12-20T10:15:16;3.63;;;1.85;;
46835;SDS011;32573;51.290;6.926;2022-12-20T10:18:01;3.58;;;1.80;;
46835;SDS011;32573;51.290;6.926;2022-12-20T10:20:56;4.65;;;2.25;;
46835;SDS011;32573;51.290;6.926;2022-12-20T10:23:39;4.88;;;1.88;;
46835;SDS011;32573;51.290;6.926;2022-12-20T10:26:21;4.85;;;2.20;;
46835;SDS011;32573;51.290;6.926;2022-12-20T10:28:59;4.05;;;2.00;;
46835;SDS011;32573;51.290;6.926;2022-12-20T10:31:28;3.80;;;2.10;;
46835;SDS011;32573;51.290;6.926;2022-12-20T10:34:08;4.53;;;1.70;;
46835;SDS011;32573;51.290;6.926;2022-12-20T10:36:39;3.90;;;1.90;;
46835;SDS011;32573;51.290;6.926;2022-12-20T10:39:23;3.95;;;1.67;;
46835;SDS011;32573;51.290;6.926;2022-12-20T10:45:09;3.70;;;1.70;;
46835;SDS011;32573;51.290;6.926;2022-12-20T10:48:20;3.88;;;1.88;;
46835;SDS011;32573;51.290;6.926;2022-12-20T10:50:57;4.00;;;1.65;;
46835;SDS011;32573;51.290;6.926;2022-12-20T10:53:28;3.72;;;1.73;;
46835;SDS011;32573;51.290;6.926;2022-12-20T10:56:12;4.40;;;1.65;;
46835;SDS011;32573;51.290;6.926;2022-12-20T10:58:56;5.22;;;1.90;;
46835;SDS011;32573;51.290;6.926;2022-12-20T11:01:31;4.90;;;1.95;;
46835;SDS011;32573;51.290;6.926;2022-12-20T11:04:06;3.20;;;1.70;;
46835;SDS011;32573;51.290;6.926;2022-12-20T11:06:57;4.03;;;1.80;;
46835;SDS011;32573;51.290;6.926;2022-12-20T11:09:28;3.58;;;1.80;;
46835;SDS011;32573;51.290;6.926;2022-12-20T11:12:01;3.60;;;1.80;;
46835;SDS011;32573;51.290;6.926;2022-12-20T11:14:46;4.95;;;1.92;;
46835;SDS011;32573;51.290;6.926;2022-12-20T11:17:22;3.60;;;1.67;;
46835;SDS011;32573;51.290;6.926;2022-12-20T11:22:59;5.45;;;1.80;;
46835;SDS011;32573;51.290;6.926;2022-12-20T11:25:38;4.38;;;1.67;;
46835;SDS011;32573;51.290;6.926;2022-12-20T11:28:23;3.75;;;1.70;;
46835;SDS011;32573;51.290;6.926;2022-12-20T11:31:15;4.28;;;1.50;;
46835;SDS011;32573;51.290;6.926;2022-12-20T11:33:57;3.40;;;1.52;;
46835;SDS011;32573;51.290;6.926;2022-12-20T11:36:47;4.40;;;1.88;;
46835;SDS011;32573;51.290;6.926;2022-12-20T11:39:39;3.63;;;1.70;;
46835;SDS011;32573;51.290;6.926;2022-12-20T11:42:21;4.00;;;1.55;;
46835;SDS011;32573;51.290;6.926;2022-12-20T11:45:02;5.03;;;1.75;;
46835;SDS011;32573;51.290;6.926;2022-12-20T11:50:33;4.38;;;1.70;;
46835;SDS011;32573;51.290;6.926;2022-12-20T11:53:19;3.05;;;1.40;;
46835;SDS011;32573;51.290;6.926;2022-12-20T11:55:58;5.43;;;1.60;;
46835;SDS011;32573;51.290;6.926;2022-12-20T11:58:31;4.53;;;1.80;;
46835;SDS011;32573;51.290;6.926;2022-12-20T12:01:16;4.03;;;1.55;;
46835;SDS011;32573;51.290;6.926;2022-12-20T12:03:52;3.92;;;1.65;;
46835;SDS011;32573;51.290;6.926;2022-12-20T12:06:37;3.53;;;1.63;;
46835;SDS011;32573;51.290;6.926;2022-12-20T12:09:13;5.30;;;1.95;;
46835;SDS011;32573;51.290;6.926;2022-12-20T12:11:50;3.38;;;1.50;;
46835;SDS011;32573;51.290;6.926;2022-12-20T12:14:40;4.05;;;1.80;;
46835;SDS011;32573;51.290;6.926;2022-12-20T12:17:22;3.67;;;1.70;;
46835;SDS011;32573;51.290;6.926;2022-12-20T12:19:59;3.90;;;1.70;;
46835;SDS011;32573;51.290;6.926;2022-12-20T12:22:49;3.20;;;1.50;;
46835;SDS011;32573;51.290;6.926;2022-12-20T12:25:27;3.53;;;1.90;;
46835;SDS011;32573;51.290;6.926;2022-12-20T12:27:58;4.15;;;1.85;;
46835;SDS011;32573;51.290;6.926;2022-12-20T12:30:34;3.80;;;1.73;;
46835;SDS011;32573;51.290;6.926;2022-12-20T12:33:09;5.85;;;1.73;;
46835;SDS011;32573;51.290;6.926;2022-12-20T12:35:54;4.90;;;1.88;;
46835;SDS011;32573;51.290;6.926;2022-12-20T12:38:59;4.80;;;2.20;;
46835;SDS011;32573;51.290;6.926;2022-12-20T12:41:50;5.75;;;2.08;;
46835;SDS011;32573;51.290;6.926;2022-12-20T12:44:52;4.10;;;1.90;;
46835;SDS011;32573;51.290;6.926;2022-12-20T12:47:34;5.57;;;2.10;;
46835;SDS011;32573;51.290;6.926;2022-12-20T12:50:21;4.18;;;1.80;;
46835;SDS011;32573;51.290;6.926;2022-12-20T12:52:55;3.55;;;1.88;;
46835;SDS011;32573;51.290;6.926;2022-12-20T12:55:40;5.65;;;2.30;;
46835;SDS011;32573;51.290;6.926;2022-12-20T12:58:38;4.10;;;2.15;;
46835;SDS011;32573;51.290;6.926;2022-12-20T13:01:45;4.10;;;2.15;;
46835;SDS011;32573;51.290;6.926;2022-12-20T13:04:21;4.20;;;1.98;;
46835;SDS011;32573;51.290;6.926;2022-12-20T13:07:23;4.63;;;2.10;;
46835;SDS011;32573;51.290;6.926;2022-12-20T13:09:55;4.28;;;2.38;;
46835;SDS011;32573;51.290;6.926;2022-12-20T13:18:36;4.25;;;2.08;;
46835;SDS011;32573;51.290;6.926;2022-12-20T13:27:26;3.60;;;1.83;;
46835;SDS011;32573;51.290;6.926;2022-12-20T13:39:00;5.15;;;2.03;;
46835;SDS011;32573;51.290;6.926;2022-12-20T13:41:34;5.17;;;2.03;;
46835;SDS011;32573;51.290;6.926;2022-12-20T13:47:06;3.40;;;1.70;;
46835;SDS011;32573;51.290;6.926;2022-12-20T13:49:47;4.18;;;2.15;;
46835;SDS011;32573;51.290;6.926;2022-12-20T13:52:23;4.10;;;1.88;;
46835;SDS011;32573;51.290;6.926;2022-12-20T13:54:57;5.70;;;2.00;;
46835;SDS011;32573;51.290;6.926;2022-12-20T13:57:29;3.78;;;1.73;;
46835;SDS011;32573;51.290;6.926;2022-12-20T14:00:04;3.67;;;1.70;;
46835;SDS011;32573;51.290;6.926;2022-12-20T14:02:43;3.85;;;1.88;;
46835;SDS011;32573;51.290;6.926;2022-12-20T14:05:15;4.55;;;1.92;;
46835;SDS011;32573;51.290;6.926;2022-12-20T14:07:51;3.55;;;1.90;;
46835;SDS011;32573;51.290;6.926;2022-12-20T14:10:27;3.35;;;1.80;;
46835;SDS011;32573;51.290;6.926;2022-12-20T14:12:58;4.32;;;1.80;;
46835;SDS011;32573;51.290;6.926;2022-12-20T14:15:30;3.40;;;1.77;;
46835;SDS011;32573;51.290;6.926;2022-12-20T14:18:04;3.88;;;1.90;;
46835;SDS011;32573;51.290;6.926;2022-12-20T14:20:45;3.80;;;2.03;;
46835;SDS011;32573;51.290;6.926;2022-12-20T14:23:17;3.90;;;2.22;;
46835;SDS011;32573;51.290;6.926;2022-12-20T14:25:50;4.63;;;2.13;;
46835;SDS011;32573;51.290;6.926;2022-12-20T14:28:28;4.43;;;2.03;;
46835;SDS011;32573;51.290;6.926;2022-12-20T14:31:05;5.60;;;2.20;;
46835;SDS011;32573;51.290;6.926;2022-12-20T14:33:50;4.38;;;2.03;;
46835;SDS011;32573;51.290;6.926;2022-12-20T14:36:29;4.20;;;1.83;;
46835;SDS011;32573;51.290;6.926;2022-12-20T14:38:59;3.97;;;1.80;;
46835;SDS011;32573;51.290;6.926;2022-12-20T14:41:30;5.20;;;2.05;;
46835;SDS011;32573;51.290;6.926;2022-12-20T14:44:03;3.35;;;1.70;;
46835;SDS011;32573;51.290;6.926;2022-12-20T14:46:47;5.05;;;2.45;;
46835;SDS011;32573;51.290;6.926;2022-12-20T14:49:20;3.92;;;2.05;;
46835;SDS011;32573;51.290;6.926;2022-12-20T14:52:02;4.20;;;2.00;;
46835;SDS011;32573;51.290;6.926;2022-12-20T14:54:33;4.88;;;1.80;;
46835;SDS011;32573;51.290;6.926;2022-12-20T14:57:31;5.43;;;2.00;;
46835;SDS011;32573;51.290;6.926;2022-12-20T15:00:11;3.72;;;1.70;;
46835;SDS011;32573;51.290;6.926;2022-12-20T15:02:51;3.60;;;1.70;;
46835;SDS011;32573;51.290;6.926;2022-12-20T15:05:35;3.85;;;2.00;;
46835;SDS011;32573;51.290;6.926;2022-12-20T15:08:17;3.78;;;1.60;;
46835;SDS011;32573;51.290;6.926;2022-12-20T15:10:52;4.13;;;1.80;;
46835;SDS011;32573;51.290;6.926;2022-12-20T15:13:29;3.97;;;1.80;;
46835;SDS011;32573;51.290;6.926;2022-12-20T15:16:00;5.15;;;1.95;;
46835;SDS011;32573;51.290;6.926;2022-12-20T15:18:34;3.95;;;1.70;;
46835;SDS011;32573;51.290;6.926;2022-12-20T15:21:04;3.95;;;1.88;;
46835;SDS011;32573;51.290;6.926;2022-12-20T15:23:41;3.92;;;1.80;;
46835;SDS011;32573;51.290;6.926;2022-12-20T15:26:16;5.20;;;1.70;;
46835;SDS011;32573;51.290;6.926;2022-12-20T15:28:46;4.00;;;1.85;;
46835;SDS011;32573;51.290;6.926;2022-12-20T15:31:16;3.97;;;1.90;;
46835;SDS011;32573;51.290;6.926;2022-12-20T15:33:48;3.63;;;1.73;;
46835;SDS011;32573;51.290;6.926;2022-12-20T15:36:21;4.47;;;1.80;;
46835;SDS011;32573;51.290;6.926;2022-12-20T15:38:52;4.45;;;2.20;;
46835;SDS011;32573;51.290;6.926;2022-12-20T15:41:39;4.22;;;1.85;;
46835;SDS011;32573;51.290;6.926;2022-12-20T15:44:14;3.70;;;1.90;;
46835;SDS011;32573;51.290;6.926;2022-12-20T15:46:45;4.10;;;2.00;;
46835;SDS011;32573;51.290;6.926;2022-12-20T15:49:17;4.53;;;2.08;;
46835;SDS011;32573;51.290;6.926;2022-12-20T15:51:48;4.53;;;2.00;;
46835;SDS011;32573;51.290;6.926;2022-12-20T15:54:20;5.88;;;2.45;;
46835;SDS011;32573;51.290;6.926;2022-12-20T15:56:53;3.90;;;2.25;;
46835;SDS011;32573;51.290;6.926;2022-12-20T15:59:24;4.75;;;2.47;;
46835;SDS011;32573;51.290;6.926;2022-12-20T16:02:16;5.15;;;2.08;;
46835;SDS011;32573;51.290;6.926;2022-12-20T16:04:51;4.82;;;2.28;;
46835;SDS011;32573;51.290;6.926;2022-12-20T16:07:24;6.88;;;2.20;;
46835;SDS011;32573;51.290;6.926;2022-12-20T16:09:54;4.00;;;2.20;;
46835;SDS011;32573;51.290;6.926;2022-12-20T16:12:23;4.97;;;1.95;;
46835;SDS011;32573;51.290;6.926;2022-12-20T16:14:56;3.97;;;1.97;;
46835;SDS011;32573;51.290;6.926;2022-12-20T16:17:25;4.32;;;2.05;;
46835;SDS011;32573;51.290;6.926;2022-12-20T16:19:56;4.28;;;2.00;;
46835;SDS011;32573;51.290;6.926;2022-12-20T16:22:26;3.70;;;1.77;;
46835;SDS011;32573;51.290;6.926;2022-12-20T16:24:55;3.60;;;1.80;;
46835;SDS011;32573;51.290;6.926;2022-12-20T16:27:25;4.50;;;1.77;;